createdAt,value
2018-06-01T00:00:02.474Z,18.50
2018-06-01T00:02:31.459Z,18.40
2018-06-01T00:05:00.499Z,18.50
2018-06-01T00:07:28.729Z,18.40
2018-06-01T00:09:57.007Z,18.50
2018-06-01T00:12:26.056Z,18.30
2018-06-01T00:14:54.430Z,18.30
2018-06-01T00:17:22.687Z,18.20
2018-06-01T00:19:50.930Z,18.20
2018-06-01T00:22:19.948Z,18.20
2018-06-01T00:24:48.231Z,18.10
2018-06-01T00:27:16.515Z,18.10
2018-06-01T00:29:44.785Z,18.10
2018-06-01T00:32:13.140Z,18.10
2018-06-01T00:34:41.404Z,18.00
2018-06-01T00:37:10.492Z,18.00
2018-06-01T00:39:39.516Z,18.10
2018-06-01T00:42:08.566Z,18.00
2018-06-01T00:44:38.005Z,18.00
2018-06-01T00:47:06.276Z,18.00
2018-06-01T00:49:35.382Z,18.00
2018-06-01T00:52:03.659Z,17.90
2018-06-01T00:54:43.782Z,18.00
2018-06-01T00:57:12.873Z,17.90
2018-06-01T00:59:41.145Z,17.90
2018-06-01T01:02:10.390Z,18.00
2018-06-01T01:04:38.634Z,17.90
2018-06-01T01:07:07.590Z,17.90
2018-06-01T01:09:36.598Z,18.00
2018-06-01T01:12:05.578Z,17.90
2018-06-01T01:14:34.520Z,17.90
2018-06-01T01:17:02.774Z,17.90
2018-06-01T01:19:31.034Z,17.90
2018-06-01T01:21:59.313Z,17.90
2018-06-01T01:24:27.544Z,17.90
2018-06-01T01:26:55.746Z,17.80
2018-06-01T01:29:24.738Z,17.80
2018-06-01T01:31:54.038Z,17.90
2018-06-01T01:34:23.134Z,17.90
2018-06-01T01:36:52.127Z,17.90
2018-06-01T01:39:21.113Z,17.90
2018-06-01T01:41:50.107Z,17.90
2018-06-01T01:44:19.122Z,17.90
2018-06-01T01:46:47.377Z,17.90
2018-06-01T01:49:15.660Z,18.00
2018-06-01T01:51:43.937Z,17.90
2018-06-01T01:54:12.197Z,17.90
2018-06-01T01:56:41.170Z,17.90
2018-06-01T01:59:10.304Z,17.80
2018-06-01T02:01:38.545Z,17.80
2018-06-01T02:04:06.726Z,17.80
2018-06-01T02:06:35.824Z,17.80
2018-06-01T02:09:04.830Z,17.80
2018-06-01T02:11:33.051Z,17.80
2018-06-01T02:14:01.390Z,17.90
2018-06-01T02:16:29.642Z,17.80
2018-06-01T02:18:58.632Z,17.80
2018-06-01T02:21:27.641Z,17.80
2018-06-01T02:23:55.837Z,17.80
2018-06-01T02:26:24.065Z,17.80
2018-06-01T02:28:53.057Z,17.80
2018-06-01T02:31:22.079Z,17.70
2018-06-01T02:33:50.335Z,17.70
2018-06-01T02:36:18.601Z,17.70
2018-06-01T02:38:47.598Z,17.60
2018-06-01T02:41:16.597Z,17.70
2018-06-01T02:43:44.805Z,17.70
2018-06-01T02:46:13.051Z,17.70
2018-06-01T02:48:41.321Z,17.80
2018-06-01T02:51:09.592Z,17.80
2018-06-01T02:53:37.823Z,17.80
2018-06-01T02:56:06.235Z,17.90
2018-06-01T02:58:34.723Z,17.80
2018-06-01T03:01:03.717Z,17.80
2018-06-01T03:03:31.934Z,17.80
2018-06-01T03:06:00.157Z,17.90
2018-06-01T03:08:28.382Z,17.80
2018-06-01T03:10:56.726Z,17.80
2018-06-01T03:13:24.956Z,17.80
2018-06-01T03:15:53.169Z,17.90
2018-06-01T03:18:21.380Z,17.90
2018-06-01T03:20:49.913Z,17.90
2018-06-01T03:23:18.997Z,18.00
2018-06-01T03:25:47.209Z,17.90
2018-06-01T03:28:15.457Z,17.90
2018-06-01T03:30:43.712Z,18.00
2018-06-01T03:33:12.706Z,18.00
2018-06-01T03:35:41.696Z,18.00
2018-06-01T03:38:11.109Z,18.00
2018-06-01T03:40:39.385Z,17.90
2018-06-01T03:43:07.648Z,18.00
2018-06-01T03:45:35.930Z,18.00
2018-06-01T03:48:04.146Z,18.00
2018-06-01T03:50:32.373Z,18.00
2018-06-01T03:53:00.649Z,18.00
2018-06-01T03:55:28.927Z,18.00
2018-06-01T03:57:57.218Z,18.10
2018-06-01T04:00:25.433Z,18.10
2018-06-01T04:02:54.558Z,18.10
2018-06-01T04:05:22.845Z,18.10
2018-06-01T04:07:51.117Z,18.20
2018-06-01T04:10:20.093Z,18.20
2018-06-01T04:12:49.103Z,18.30
2018-06-01T04:15:18.094Z,18.30
2018-06-01T04:17:46.375Z,18.30
2018-06-01T04:20:14.595Z,18.30
2018-06-01T04:22:42.943Z,18.30
2018-06-01T04:25:11.142Z,18.40
2018-06-01T04:27:39.532Z,18.30
2018-06-01T04:30:07.721Z,18.30
2018-06-01T04:32:35.942Z,18.30
2018-06-01T04:35:04.175Z,18.40
2018-06-01T04:37:33.176Z,18.40
2018-06-01T04:40:02.190Z,18.50
2018-06-01T04:42:30.419Z,18.40
2018-06-01T04:44:58.652Z,18.50
2018-06-01T04:47:26.898Z,18.50
2018-06-01T04:49:55.163Z,18.60
2018-06-01T04:52:24.273Z,18.70
2018-06-01T04:54:52.519Z,18.70
2018-06-01T04:57:21.521Z,18.70
2018-06-01T04:59:49.757Z,18.70
2018-06-01T05:02:17.960Z,18.60
2018-06-01T05:04:46.973Z,18.70
2018-06-01T05:07:15.201Z,18.60
2018-06-01T05:09:43.413Z,18.70
2018-06-01T05:12:12.004Z,18.70
2018-06-01T05:14:40.213Z,18.80
2018-06-01T05:17:08.422Z,18.80
2018-06-01T05:19:37.431Z,18.80
2018-06-01T05:22:06.429Z,18.80
2018-06-01T05:24:34.675Z,18.80
2018-06-01T05:27:02.992Z,18.80
2018-06-01T05:29:31.225Z,19.00
2018-06-01T05:31:59.522Z,18.90
2018-06-01T05:34:27.812Z,19.00
2018-06-01T05:36:56.046Z,18.90
2018-06-01T05:39:24.345Z,19.00
2018-06-01T05:41:53.451Z,19.00
2018-06-01T05:44:21.726Z,19.00
2018-06-01T05:46:49.947Z,19.00
2018-06-01T05:49:18.181Z,19.00
2018-06-01T05:51:46.413Z,19.00
2018-06-01T05:54:15.429Z,18.70
2018-06-01T05:56:43.651Z,18.70
2018-06-01T05:59:11.886Z,18.60
2018-06-01T06:01:40.367Z,18.70
2018-06-01T06:04:08.585Z,18.70
2018-06-01T06:06:36.817Z,18.70
2018-06-01T06:09:05.899Z,18.70
2018-06-01T06:11:34.180Z,18.70
2018-06-01T06:14:02.560Z,18.80
2018-06-01T06:16:30.786Z,18.80
2018-06-01T06:18:59.158Z,18.90
2018-06-01T06:21:27.341Z,18.90
2018-06-01T06:23:55.581Z,19.00
2018-06-01T06:26:23.827Z,19.10
2018-06-01T06:28:52.057Z,19.20
2018-06-01T06:31:21.865Z,19.50
2018-06-01T06:33:50.021Z,19.50
2018-06-01T06:36:18.261Z,19.70
2018-06-01T06:38:46.485Z,19.80
2018-06-01T06:41:14.799Z,20.00
2018-06-01T06:43:43.022Z,20.10
2018-06-01T06:46:11.345Z,20.30
2018-06-01T06:48:40.357Z,20.50
2018-06-01T06:51:08.561Z,20.40
2018-06-01T06:53:36.882Z,20.50
2018-06-01T06:56:05.985Z,20.70
2018-06-01T06:58:34.971Z,20.80
2018-06-01T07:01:04.078Z,20.80
2018-06-01T07:03:32.305Z,20.80
2018-06-01T07:06:00.526Z,20.80
2018-06-01T07:08:28.753Z,20.80
2018-06-01T07:10:56.961Z,20.90
2018-06-01T07:13:25.198Z,20.90
2018-06-01T07:15:53.425Z,21.10
2018-06-01T07:18:21.687Z,21.10
2018-06-01T07:20:50.082Z,21.30
2018-06-01T07:23:18.340Z,21.40
2018-06-01T07:25:47.335Z,21.50
2018-06-01T07:28:15.578Z,21.50
2018-06-01T07:30:43.879Z,21.50
2018-06-01T07:33:12.113Z,21.50
2018-06-01T07:35:40.443Z,21.60
2018-06-01T07:38:08.661Z,21.60
2018-06-01T07:40:36.974Z,21.70
2018-06-01T07:43:05.307Z,21.60
2018-06-01T07:45:33.555Z,21.70
2018-06-01T07:48:01.758Z,21.70
2018-06-01T07:50:29.991Z,21.60
2018-06-01T07:52:58.262Z,21.70
2018-06-01T07:55:26.531Z,21.70
2018-06-01T07:57:54.753Z,21.90
2018-06-01T08:00:22.996Z,21.90
2018-06-01T08:02:51.245Z,22.00
2018-06-01T08:05:19.474Z,22.10
2018-06-01T08:07:47.802Z,22.20
2018-06-01T08:10:16.037Z,22.10
2018-06-01T08:12:44.355Z,22.10
2018-06-01T08:15:12.586Z,22.10
2018-06-01T08:17:40.802Z,22.20
2018-06-01T08:20:09.022Z,22.30
2018-06-01T08:22:37.273Z,22.40
2018-06-01T08:25:05.512Z,22.40
2018-06-01T08:27:34.614Z,22.40
2018-06-01T08:30:02.838Z,22.40
2018-06-01T08:32:31.097Z,22.40
2018-06-01T08:35:00.042Z,22.20
2018-06-01T08:37:29.049Z,22.30
2018-06-01T08:39:57.281Z,22.20
2018-06-01T08:42:25.535Z,22.20
2018-06-01T08:44:53.755Z,22.10
2018-06-01T08:47:22.025Z,22.20
2018-06-01T08:49:51.014Z,22.20
2018-06-01T08:52:20.002Z,22.10
2018-06-01T08:54:48.997Z,22.10
2018-06-01T08:57:17.997Z,22.10
2018-06-01T08:59:46.970Z,22.00
2018-06-01T09:02:16.053Z,21.80
2018-06-01T09:04:44.250Z,21.80
2018-06-01T09:07:13.239Z,21.90
2018-06-01T09:09:42.229Z,21.80
2018-06-01T09:12:11.233Z,21.90
2018-06-01T09:14:39.470Z,21.80
2018-06-01T09:17:07.682Z,21.90
2018-06-01T09:19:35.908Z,22.00
2018-06-01T09:22:04.163Z,22.00
2018-06-01T09:24:32.361Z,22.20
2018-06-01T09:27:00.583Z,22.30
2018-06-01T09:29:28.797Z,22.30
2018-06-01T09:31:57.834Z,22.40
2018-06-01T09:34:26.121Z,22.40
2018-06-01T09:36:55.207Z,22.20
2018-06-01T09:39:23.456Z,22.20
2018-06-01T09:41:51.758Z,22.00
2018-06-01T09:44:20.026Z,21.80
2018-06-01T09:46:49.119Z,21.60
2018-06-01T09:49:18.114Z,21.60
2018-06-01T09:51:47.099Z,21.60
2018-06-01T09:54:16.502Z,21.60
2018-06-01T09:56:45.478Z,21.60
2018-06-01T09:59:14.469Z,21.60
2018-06-01T10:01:42.766Z,21.60
2018-06-01T10:04:10.989Z,21.50
2018-06-01T10:06:39.311Z,21.50
2018-06-01T10:09:08.303Z,21.50
2018-06-01T10:11:36.577Z,21.50
2018-06-01T10:14:05.595Z,21.60
2018-06-01T10:16:33.809Z,21.50
2018-06-01T10:19:02.050Z,21.60
2018-06-01T10:21:30.405Z,21.60
2018-06-01T10:23:58.775Z,21.60
2018-06-01T10:26:27.949Z,21.70
2018-06-01T10:28:56.203Z,21.70
2018-06-01T10:31:24.697Z,21.80
2018-06-01T10:33:53.015Z,21.80
2018-06-01T10:36:21.695Z,21.90
2018-06-01T10:38:50.073Z,21.90
2018-06-01T10:41:18.318Z,22.00
2018-06-01T10:43:47.305Z,22.10
2018-06-01T10:46:15.592Z,22.10
2018-06-01T10:48:44.694Z,22.30
2018-06-01T10:51:13.882Z,22.20
2018-06-01T10:53:42.996Z,22.40
2018-06-01T10:56:11.274Z,22.40
2018-06-01T10:58:39.494Z,22.50
2018-06-01T11:01:08.520Z,22.50
2018-06-01T11:03:36.709Z,22.50
2018-06-01T11:06:04.918Z,22.50
2018-06-01T11:08:33.266Z,22.50
2018-06-01T11:11:01.481Z,22.50
2018-06-01T11:13:29.734Z,22.60
2018-06-01T11:15:57.966Z,22.70
2018-06-01T11:18:26.957Z,22.80
2018-06-01T11:20:55.186Z,22.80
2018-06-01T11:23:23.614Z,22.80
2018-06-01T11:25:51.886Z,22.70
2018-06-01T11:28:20.102Z,22.70
2018-06-01T11:30:48.327Z,22.80
2018-06-01T11:33:17.361Z,23.00
2018-06-01T11:35:45.566Z,23.00
2018-06-01T11:38:13.807Z,23.10
2018-06-01T11:40:42.045Z,23.30
2018-06-01T11:43:10.352Z,23.40
2018-06-01T11:45:38.589Z,23.60
2018-06-01T11:48:07.686Z,23.50
2018-06-01T11:50:35.898Z,23.50
2018-06-01T11:53:04.143Z,23.70
2018-06-01T11:55:32.353Z,23.90
2018-06-01T11:58:00.687Z,24.30
2018-06-01T12:00:28.965Z,24.50
2018-06-01T12:02:57.186Z,24.60
2018-06-01T12:05:25.399Z,24.60
2018-06-01T12:07:54.598Z,24.70
2018-06-01T12:10:23.597Z,24.80
2018-06-01T12:12:52.565Z,24.80
2018-06-01T12:15:21.552Z,24.90
2018-06-01T12:17:49.908Z,24.90
2018-06-01T12:20:18.845Z,25.30
2018-06-01T12:22:47.057Z,25.30
2018-06-01T12:25:15.262Z,25.60
2018-06-01T12:27:43.564Z,26.00
2018-06-01T12:30:12.605Z,26.20
2018-06-01T12:32:40.845Z,26.20
2018-06-01T12:35:09.053Z,26.40
2018-06-01T12:37:37.376Z,26.30
2018-06-01T12:40:05.550Z,26.10
2018-06-01T12:42:34.560Z,25.80
2018-06-01T12:45:02.766Z,25.80
2018-06-01T12:47:31.091Z,25.70
2018-06-01T12:50:00.078Z,25.50
2018-06-01T12:52:29.114Z,25.70
2018-06-01T12:54:57.341Z,25.70
2018-06-01T12:57:25.630Z,25.90
2018-06-01T12:59:54.671Z,25.70
2018-06-01T13:02:22.990Z,25.70
2018-06-01T13:04:52.005Z,25.60
2018-06-01T13:07:20.215Z,25.60
2018-06-01T13:09:48.436Z,25.50
2018-06-01T13:12:16.711Z,25.70
2018-06-01T13:14:44.955Z,25.80
2018-06-01T13:17:13.154Z,25.80
2018-06-01T13:19:42.254Z,26.20
2018-06-01T13:22:10.471Z,26.20
2018-06-01T13:24:38.700Z,25.90
2018-06-01T13:27:07.669Z,25.80
2018-06-01T13:29:36.666Z,25.50
2018-06-01T13:32:05.645Z,25.60
2018-06-01T13:34:33.886Z,25.60
2018-06-01T13:37:02.162Z,25.60
2018-06-01T13:39:30.381Z,25.50
2018-06-01T13:41:59.421Z,25.90
2018-06-01T13:44:28.383Z,26.00
2018-06-01T13:46:56.599Z,25.90
2018-06-01T13:49:24.945Z,26.00
2018-06-01T13:51:53.905Z,25.50
2018-06-01T13:54:22.921Z,25.30
2018-06-01T13:56:51.197Z,25.40
2018-06-01T13:59:19.450Z,25.00
2018-06-01T14:01:48.445Z,24.60
2018-06-01T14:04:17.462Z,24.40
2018-06-01T14:06:45.692Z,24.30
2018-06-01T14:09:14.706Z,24.20
2018-06-01T14:11:43.720Z,24.20
2018-06-01T14:14:11.988Z,24.10
2018-06-01T14:16:40.278Z,24.10
2018-06-01T14:19:08.473Z,24.20
2018-06-01T14:21:36.670Z,24.10
2018-06-01T14:24:04.975Z,24.00
2018-06-01T14:26:34.163Z,24.00
2018-06-01T14:29:02.343Z,23.90
2018-06-01T14:31:30.606Z,23.90
2018-06-01T14:33:59.624Z,24.10
2018-06-01T14:36:28.961Z,24.10
2018-06-01T14:38:58.021Z,24.00
2018-06-01T14:41:26.241Z,24.00
2018-06-01T14:43:54.477Z,24.00
2018-06-01T14:46:22.704Z,24.00
2018-06-01T14:48:51.022Z,24.00
2018-06-01T14:51:19.965Z,24.40
2018-06-01T14:53:48.994Z,24.50
2018-06-01T14:56:17.220Z,24.50
2018-06-01T14:58:45.526Z,24.40
2018-06-01T15:01:14.198Z,24.40
2018-06-01T15:03:42.495Z,24.40
2018-06-01T15:06:10.766Z,24.50
2018-06-01T15:08:39.048Z,24.30
2018-06-01T15:11:07.277Z,24.00
2018-06-01T15:13:35.510Z,23.80
2018-06-01T15:16:03.734Z,23.70
2018-06-01T15:18:32.730Z,23.40
2018-06-01T15:21:01.734Z,23.10
2018-06-01T15:23:30.731Z,23.10
2018-06-01T15:25:59.013Z,23.00
2018-06-01T15:28:27.499Z,22.90
2018-06-01T15:30:55.727Z,22.70
2018-06-01T15:33:24.026Z,22.60
2018-06-01T15:35:53.073Z,22.50
2018-06-01T15:38:21.273Z,22.50
2018-06-01T15:40:49.520Z,22.40
2018-06-01T15:43:17.873Z,22.40
2018-06-01T15:45:46.108Z,22.40
2018-06-01T15:48:15.104Z,22.30
2018-06-01T15:50:44.098Z,22.20
2018-06-01T15:53:13.117Z,22.20
2018-06-01T15:55:41.365Z,22.20
2018-06-01T15:58:10.354Z,22.00
2018-06-01T16:00:39.342Z,22.00
2018-06-01T16:03:08.345Z,21.90
2018-06-01T16:05:36.576Z,21.90
2018-06-01T16:08:04.906Z,21.70
2018-06-01T16:10:33.131Z,21.70
2018-06-01T16:13:01.354Z,21.70
2018-06-01T16:15:29.586Z,21.60
2018-06-01T16:17:57.804Z,21.50
2018-06-01T16:20:26.041Z,21.50
2018-06-01T16:22:54.337Z,21.30
2018-06-01T16:25:22.557Z,21.20
2018-06-01T16:27:50.785Z,21.20
2018-06-01T16:30:20.028Z,21.00
2018-06-01T16:32:48.247Z,21.10
2018-06-01T16:35:17.235Z,21.10
2018-06-01T16:37:46.346Z,21.10
2018-06-01T16:40:14.621Z,21.10
2018-06-01T16:42:42.834Z,21.10
2018-06-01T16:45:11.065Z,21.00
2018-06-01T16:47:39.285Z,20.90
2018-06-01T16:50:07.747Z,20.80
2018-06-01T16:52:35.955Z,20.70
2018-06-01T16:55:04.294Z,20.60
2018-06-01T16:57:32.966Z,20.50
2018-06-01T17:00:01.182Z,20.40
2018-06-01T17:02:30.452Z,20.40
2018-06-01T17:04:58.737Z,20.30
2018-06-01T17:07:27.082Z,20.20
2018-06-01T17:09:55.374Z,20.10
2018-06-01T17:12:23.618Z,20.00
2018-06-01T17:14:52.615Z,20.00
2018-06-01T17:17:21.594Z,19.90
2018-06-01T17:19:50.592Z,19.80
2018-06-01T17:22:19.590Z,19.70
2018-06-01T17:24:47.817Z,19.70
2018-06-01T17:27:16.045Z,19.70
2018-06-01T17:29:44.294Z,19.60
2018-06-01T17:32:13.530Z,19.70
2018-06-01T17:34:42.021Z,19.60
2018-06-01T17:37:10.244Z,19.60
2018-06-01T17:39:39.252Z,19.50
2018-06-01T17:42:07.484Z,19.40
2018-06-01T17:44:35.867Z,19.40
2018-06-01T17:47:04.078Z,19.40
2018-06-01T17:49:32.346Z,19.40
2018-06-01T17:52:01.342Z,19.20
2018-06-01T17:54:30.329Z,19.10
2018-06-01T17:56:59.443Z,19.00
2018-06-01T17:59:27.661Z,19.00
2018-06-01T18:01:55.885Z,18.90
2018-06-01T18:04:24.101Z,18.80
2018-06-01T18:06:52.413Z,18.80
2018-06-01T18:09:20.697Z,18.80
2018-06-01T18:11:51.700Z,18.70
2018-06-01T18:14:19.930Z,18.70
2018-06-01T18:16:48.138Z,18.60
2018-06-01T18:19:16.462Z,18.60
2018-06-01T18:21:44.705Z,18.60
2018-06-01T18:24:12.892Z,18.50
2018-06-01T18:26:41.890Z,18.40
2018-06-01T18:29:10.889Z,18.40
2018-06-01T18:31:39.389Z,18.40
2018-06-01T18:34:07.619Z,18.40
2018-06-01T18:36:36.641Z,18.40
2018-06-01T18:39:05.661Z,18.30
2018-06-01T18:41:33.906Z,18.40
2018-06-01T18:44:02.213Z,18.30
2018-06-01T18:46:31.157Z,18.30
2018-06-01T18:49:00.157Z,18.30
2018-06-01T18:51:30.190Z,18.30
2018-06-01T18:53:59.164Z,18.20
2018-06-01T18:56:28.159Z,18.20
2018-06-01T18:58:57.150Z,18.20
2018-06-01T19:01:26.139Z,18.20
2018-06-01T19:03:55.233Z,18.10
2018-06-01T19:06:24.252Z,18.10
2018-06-01T19:08:52.482Z,18.10
2018-06-01T19:11:21.506Z,18.10
2018-06-01T19:13:49.762Z,18.10
2018-06-01T19:16:18.769Z,18.20
2018-06-01T19:18:47.031Z,18.20
2018-06-01T19:21:16.023Z,18.20
2018-06-01T19:23:45.017Z,18.10
2018-06-01T19:26:14.117Z,18.20
2018-06-01T19:28:42.348Z,18.20
2018-06-01T19:31:12.100Z,18.10
2018-06-01T19:33:41.094Z,18.10
2018-06-01T19:36:09.310Z,18.10
2018-06-01T19:38:37.547Z,18.10
2018-06-01T19:41:06.638Z,18.10
2018-06-01T19:43:35.634Z,18.00
2018-06-01T19:46:03.887Z,18.00
2018-06-01T19:48:32.896Z,18.00
2018-06-01T19:51:01.132Z,18.00
2018-06-01T19:53:29.355Z,18.00
2018-06-01T19:55:57.585Z,18.00
2018-06-01T19:58:27.318Z,17.90
2018-06-01T20:00:56.338Z,17.90
2018-06-01T20:03:24.602Z,17.90
2018-06-01T20:05:52.835Z,17.90
2018-06-01T20:08:21.038Z,17.80
2018-06-01T20:10:49.297Z,17.80
2018-06-01T20:13:18.326Z,17.80
2018-06-01T20:15:47.265Z,17.80
2018-06-01T20:18:16.382Z,17.80
2018-06-01T20:20:44.609Z,17.80
2018-06-01T20:23:12.930Z,17.80
2018-06-01T20:25:42.141Z,17.80
2018-06-01T20:28:10.370Z,17.80
2018-06-01T20:30:39.360Z,17.80
2018-06-01T20:33:07.685Z,17.80
2018-06-01T20:35:36.678Z,17.70
2018-06-01T20:38:04.923Z,17.70
2018-06-01T20:40:33.950Z,17.80
2018-06-01T20:43:02.449Z,17.70
2018-06-01T20:45:30.687Z,17.70
2018-06-01T20:47:58.899Z,17.80
2018-06-01T20:50:27.281Z,17.80
2018-06-01T20:52:55.642Z,17.80
2018-06-01T20:55:23.865Z,17.80
2018-06-01T20:57:53.078Z,17.80
2018-06-01T21:00:21.306Z,17.80
2018-06-01T21:02:49.514Z,17.80
2018-06-01T21:05:18.625Z,17.70
2018-06-01T21:07:46.845Z,17.70
2018-06-01T21:10:15.060Z,17.70
2018-06-01T21:12:44.403Z,17.70
2018-06-01T21:15:12.692Z,17.70
2018-06-01T21:17:40.946Z,17.60
2018-06-01T21:20:09.209Z,17.50
2018-06-01T21:22:37.454Z,17.60
2018-06-01T21:25:06.497Z,17.50
2018-06-01T21:27:34.718Z,17.50
2018-06-01T21:30:03.839Z,17.50
2018-06-01T21:32:32.799Z,17.50
2018-06-01T21:35:01.802Z,17.50
2018-06-01T21:37:30.829Z,17.50
2018-06-01T21:39:59.053Z,17.40
2018-06-01T21:42:28.060Z,17.40
2018-06-01T21:44:57.005Z,17.30
2018-06-01T21:47:25.212Z,17.30
2018-06-01T21:49:54.326Z,17.30
2018-06-01T21:52:22.547Z,17.30
2018-06-01T21:54:50.745Z,17.30
2018-06-01T21:57:19.730Z,17.20
2018-06-01T21:59:49.467Z,17.20
2018-06-01T22:02:18.658Z,17.20
2018-06-01T22:04:47.680Z,17.10
2018-06-01T22:07:15.910Z,17.10
2018-06-01T22:09:44.205Z,17.10
2018-06-01T22:12:12.437Z,17.10
2018-06-01T22:14:40.678Z,17.10
2018-06-01T22:17:08.913Z,17.10
2018-06-01T22:19:37.917Z,17.00
2018-06-01T22:22:06.159Z,17.00
2018-06-01T22:24:35.137Z,17.00
2018-06-01T22:27:04.177Z,17.00
2018-06-01T22:29:32.457Z,17.00
2018-06-01T22:32:00.697Z,17.10
2018-06-01T22:34:28.926Z,17.10
2018-06-01T22:36:57.142Z,17.10
2018-06-01T22:39:25.461Z,17.10
2018-06-01T22:41:53.822Z,17.10
2018-06-01T22:44:22.035Z,17.10
2018-06-01T22:46:50.269Z,17.10
2018-06-01T22:49:19.359Z,17.10
2018-06-01T22:51:48.460Z,17.10
2018-06-01T22:54:16.733Z,17.10
2018-06-01T22:56:45.674Z,17.10
2018-06-01T22:59:13.882Z,17.10
2018-06-01T23:01:42.882Z,17.20
2018-06-01T23:04:11.177Z,17.20
2018-06-01T23:06:39.441Z,17.20
2018-06-01T23:09:07.667Z,17.10
2018-06-01T23:11:36.127Z,17.10
2018-06-01T23:14:04.365Z,17.10
2018-06-01T23:16:32.657Z,17.10
2018-06-01T23:19:00.907Z,17.10
2018-06-01T23:21:29.907Z,17.10
2018-06-01T23:23:58.187Z,17.10
2018-06-01T23:26:26.393Z,17.10
2018-06-01T23:28:54.649Z,17.10
2018-06-01T23:31:22.878Z,17.00
2018-06-01T23:33:51.874Z,16.90
2018-06-01T23:36:20.871Z,16.90
2018-06-01T23:38:49.864Z,16.90
2018-06-01T23:41:18.857Z,16.90
2018-06-01T23:43:47.868Z,16.80
2018-06-01T23:46:16.104Z,16.80
2018-06-01T23:48:44.596Z,16.80
2018-06-01T23:51:13.623Z,16.80
2018-06-01T23:53:41.829Z,16.80
2018-06-01T23:56:10.167Z,16.80
2018-06-01T23:58:38.390Z,16.80
